Harbor Hills, New York
Current Conditions -  °F | °C
As of 4:51 PM on Tuesday 25 Nov 2014 (Local Time) from KLGA Reporting Station
Broken Clouds Broken Clouds  
Wind Chill: 53°   Ceiling: 25000
Heat Index: 53°   Visibility: 10mi
Dew Point: 28°   Wind: 8mph
Humidity: 38%   Direction: 260°W
Pressure: 30.02"   Gusts: NA
Location:  40.7988°N, 73.7332°W
Report Text: KLGA 252151Z 26007KT 10SM FEW050 SCT150 BKN250 12/M02 A3002 RMK AO2 SLP166 T01171022
Loading
Personal Weather Stations






























Interactive Weather Map New forecast layout! Learn more

10-Day Weather Forecast

Advertisements
Track Severe Weather on mobile